BTR3694 LMML-LIPQ
Flight info
| Callsign | BTR3694 |
|---|---|
| Flight time | 1h 46m |
| Altitude | 36000 |
| Route | GZO M622 SOPIR DCT ADEXI DCT PNZ DCT PEMAR DCT GOTMO DCT BELOV DCT ARDAM L612 CHI |
| Aircraft | B738/M-SDE2E3FGHIRWXY/LB1 |
Departure
| Time | 2026-04-21 06:09 |
|---|---|
| Airport | Malta International Airport (LMML) |
Arrival
| Time | 2026-04-21 07:56 |
|---|---|
| Airport | Trieste Airport (LIPQ) |
| Time | Latitude | Longitude | Altitude | Speed | Heading |
|---|---|---|---|---|---|
| 2026-04-21 05:29 | 35.85607 | 14.48288 | 260 ft | 0 kts | 1° |
| 2026-04-21 06:03 | 35.85603 | 14.48288 | 260 ft | 2 kts | 1° |
| 2026-04-21 06:03 | 35.85587 | 14.48288 | 260 ft | 2 kts | 1° |
| 2026-04-21 06:03 | 35.85570 | 14.48287 | 260 ft | 2 kts | 1° |
| 2026-04-21 06:04 | 35.85554 | 14.48287 | 260 ft | 2 kts | 348° |
| 2026-04-21 06:04 | 35.85540 | 14.48296 | 260 ft | 1 kts | 284° |
| 2026-04-21 06:04 | 35.85538 | 14.48305 | 260 ft | 0 kts | 268° |
| 2026-04-21 06:04 | 35.85538 | 14.48306 | 260 ft | 0 kts | 268° |
| 2026-04-21 06:05 | 35.85539 | 14.48302 | 260 ft | 1 kts | 271° |
| 2026-04-21 06:06 | 35.85540 | 14.48294 | 260 ft | 1 kts | 285° |
| 2026-04-21 06:06 | 35.85543 | 14.48286 | 260 ft | 1 kts | 291° |
| 2026-04-21 06:06 | 35.85546 | 14.48279 | 260 ft | 1 kts | 296° |
| 2026-04-21 06:06 | 35.85549 | 14.48272 | 260 ft | 1 kts | 298° |
| 2026-04-21 06:07 | 35.85560 | 14.48250 | 260 ft | 6 kts | 308° |
| 2026-04-21 06:07 | 35.85621 | 14.48215 | 260 ft | 14 kts | 349° |
| 2026-04-21 06:07 | 35.85730 | 14.48188 | 259 ft | 18 kts | 351° |
| 2026-04-21 06:07 | 35.85848 | 14.48168 | 256 ft | 15 kts | 351° |
| 2026-04-21 06:08 | 35.85935 | 14.48150 | 254 ft | 7 kts | 346° |
| 2026-04-21 06:08 | 35.85947 | 14.48143 | 254 ft | 2 kts | 331° |
| 2026-04-21 06:08 | 35.85957 | 14.48111 | 255 ft | 6 kts | 271° |
| 2026-04-21 06:08 | 35.85918 | 14.48029 | 258 ft | 30 kts | 234° |
| 2026-04-21 06:09 | 35.85641 | 14.47553 | 267 ft | 105 kts | 234° |
| 2026-04-21 06:09 | 35.85082 | 14.46613 | 307 ft | 164 kts | 232° |
| 2026-04-21 06:09 | 35.84400 | 14.45449 | 1024 ft | 164 kts | 231° |
| 2026-04-21 06:09 | 35.83626 | 14.44455 | 1971 ft | 163 kts | 207° |
| 2026-04-21 06:10 | 35.82438 | 14.44374 | 2422 ft | 192 kts | 160° |
| 2026-04-21 06:10 | 35.81388 | 14.45548 | 2661 ft | 224 kts | 120° |
| 2026-04-21 06:10 | 35.80911 | 14.47475 | 2888 ft | 245 kts | 102° |
| 2026-04-21 06:10 | 35.80627 | 14.49606 | 3211 ft | 262 kts | 99° |
| 2026-04-21 06:11 | 35.80350 | 14.51905 | 3598 ft | 278 kts | 99° |
| 2026-04-21 06:11 | 35.80057 | 14.54275 | 4349 ft | 281 kts | 99° |
| 2026-04-21 06:11 | 35.79745 | 14.56675 | 5061 ft | 287 kts | 99° |
| 2026-04-21 06:11 | 35.79414 | 14.59111 | 5794 ft | 290 kts | 99° |
| 2026-04-21 06:12 | 35.79069 | 14.61573 | 6517 ft | 294 kts | 99° |
| 2026-04-21 06:12 | 35.78712 | 14.64065 | 7235 ft | 296 kts | 99° |
| 2026-04-21 06:12 | 35.78348 | 14.66568 | 7972 ft | 298 kts | 99° |
| 2026-04-21 06:12 | 35.77985 | 14.69091 | 8690 ft | 300 kts | 98° |
| 2026-04-21 06:13 | 35.77652 | 14.71639 | 9417 ft | 303 kts | 97° |
| 2026-04-21 06:13 | 35.77312 | 14.74212 | 10127 ft | 305 kts | 97° |
| 2026-04-21 06:13 | 35.76950 | 14.76848 | 10464 ft | 323 kts | 98° |
| 2026-04-21 06:13 | 35.76549 | 14.79661 | 10628 ft | 344 kts | 99° |
| 2026-04-21 06:14 | 35.76110 | 14.82642 | 10806 ft | 363 kts | 99° |
| 2026-04-21 06:14 | 35.75644 | 14.85744 | 11233 ft | 373 kts | 99° |
| 2026-04-21 06:14 | 35.75163 | 14.88901 | 11842 ft | 376 kts | 100° |
| 2026-04-21 06:14 | 35.74676 | 14.92075 | 12526 ft | 379 kts | 100° |
| 2026-04-21 06:15 | 35.74190 | 14.95231 | 13174 ft | 382 kts | 101° |
| 2026-04-21 06:15 | 35.73727 | 14.98464 | 13819 ft | 386 kts | 95° |
| 2026-04-21 06:15 | 35.74018 | 15.01749 | 14370 ft | 390 kts | 70° |
| 2026-04-21 06:15 | 35.75345 | 15.04630 | 15008 ft | 389 kts | 47° |
| 2026-04-21 06:16 | 35.77409 | 15.06832 | 15649 ft | 388 kts | 28° |
| 2026-04-21 06:16 | 35.79852 | 15.08093 | 16255 ft | 387 kts | 11° |
| 2026-04-21 06:16 | 35.82515 | 15.08383 | 16836 ft | 384 kts | 351° |
| 2026-04-21 06:16 | 35.85152 | 15.07845 | 17493 ft | 385 kts | 346° |
| 2026-04-21 06:17 | 35.87777 | 15.07151 | 18108 ft | 388 kts | 344° |
| 2026-04-21 06:17 | 35.90417 | 15.06401 | 18656 ft | 391 kts | 343° |
| 2026-04-21 06:17 | 35.93068 | 15.05608 | 19224 ft | 393 kts | 343° |
| 2026-04-21 06:17 | 35.95729 | 15.04813 | 19799 ft | 395 kts | 343° |
| 2026-04-21 06:18 | 35.98410 | 15.04033 | 20355 ft | 397 kts | 344° |
| 2026-04-21 06:18 | 36.01111 | 15.03269 | 20890 ft | 400 kts | 344° |
| 2026-04-21 06:18 | 36.03831 | 15.02518 | 21410 ft | 402 kts | 344° |
| 2026-04-21 06:18 | 36.06572 | 15.01773 | 21933 ft | 405 kts | 345° |
| 2026-04-21 06:19 | 36.09333 | 15.01029 | 22444 ft | 407 kts | 345° |
| 2026-04-21 06:19 | 36.12109 | 15.00286 | 22944 ft | 409 kts | 345° |
| 2026-04-21 06:19 | 36.14900 | 14.99540 | 23447 ft | 412 kts | 345° |
| 2026-04-21 06:19 | 36.17708 | 14.98790 | 23866 ft | 414 kts | 345° |
| 2026-04-21 06:20 | 36.20536 | 14.98034 | 24257 ft | 417 kts | 345° |
| 2026-04-21 06:20 | 36.23376 | 14.97274 | 24661 ft | 419 kts | 345° |
| 2026-04-21 06:20 | 36.26233 | 14.96509 | 25036 ft | 421 kts | 344° |
| 2026-04-21 06:20 | 36.29104 | 14.95739 | 25416 ft | 423 kts | 344° |
| 2026-04-21 06:21 | 36.31991 | 14.94965 | 25781 ft | 426 kts | 344° |
| 2026-04-21 06:21 | 36.34897 | 14.94184 | 26151 ft | 428 kts | 344° |
| 2026-04-21 06:21 | 36.37807 | 14.93403 | 26507 ft | 430 kts | 344° |
| 2026-04-21 06:21 | 36.40740 | 14.92614 | 26864 ft | 432 kts | 344° |
| 2026-04-21 06:22 | 36.43685 | 14.91821 | 27201 ft | 434 kts | 344° |
| 2026-04-21 06:22 | 36.46646 | 14.91023 | 27536 ft | 437 kts | 344° |
| 2026-04-21 06:22 | 36.49622 | 14.90221 | 27852 ft | 439 kts | 344° |
| 2026-04-21 06:22 | 36.52612 | 14.89415 | 28177 ft | 441 kts | 344° |
| 2026-04-21 06:23 | 36.55621 | 14.88602 | 28501 ft | 443 kts | 344° |
| 2026-04-21 06:23 | 36.58639 | 14.87787 | 28809 ft | 445 kts | 343° |
| 2026-04-21 06:23 | 36.61628 | 14.86978 | 29104 ft | 447 kts | 343° |
| 2026-04-21 06:23 | 36.64671 | 14.86155 | 29406 ft | 449 kts | 343° |
| 2026-04-21 06:24 | 36.67724 | 14.85328 | 29760 ft | 449 kts | 343° |
| 2026-04-21 06:24 | 36.70772 | 14.84503 | 30192 ft | 447 kts | 343° |
| 2026-04-21 06:24 | 36.73806 | 14.83682 | 30605 ft | 445 kts | 343° |
| 2026-04-21 06:24 | 36.76819 | 14.82866 | 31004 ft | 442 kts | 343° |
| 2026-04-21 06:25 | 36.79819 | 14.82051 | 31358 ft | 441 kts | 343° |
| 2026-04-21 06:25 | 36.82816 | 14.81236 | 31700 ft | 440 kts | 343° |
| 2026-04-21 06:25 | 36.85801 | 14.80424 | 32063 ft | 438 kts | 343° |
| 2026-04-21 06:25 | 36.88774 | 14.79614 | 32444 ft | 436 kts | 343° |
| 2026-04-21 06:26 | 36.91736 | 14.78807 | 32801 ft | 435 kts | 343° |
| 2026-04-21 06:26 | 36.94687 | 14.78002 | 33122 ft | 434 kts | 343° |
| 2026-04-21 06:26 | 36.97638 | 14.77196 | 33474 ft | 433 kts | 343° |
| 2026-04-21 06:26 | 37.00573 | 14.76394 | 33834 ft | 431 kts | 343° |
| 2026-04-21 06:27 | 37.03502 | 14.75593 | 34152 ft | 430 kts | 343° |
| 2026-04-21 06:27 | 37.06419 | 14.74794 | 34405 ft | 429 kts | 343° |
| 2026-04-21 06:27 | 37.09340 | 14.73992 | 34595 ft | 430 kts | 343° |
| 2026-04-21 06:27 | 37.12269 | 14.73188 | 34808 ft | 431 kts | 343° |
| 2026-04-21 06:28 | 37.15192 | 14.72386 | 35054 ft | 430 kts | 343° |
| 2026-04-21 06:28 | 37.18115 | 14.71584 | 35284 ft | 430 kts | 343° |
| 2026-04-21 06:28 | 37.21042 | 14.70780 | 35484 ft | 430 kts | 343° |
| 2026-04-21 06:28 | 37.23967 | 14.69976 | 35697 ft | 430 kts | 343° |
| 2026-04-21 06:29 | 37.26891 | 14.69172 | 35921 ft | 430 kts | 343° |
| 2026-04-21 06:29 | 37.32763 | 14.67552 | 36005 ft | 433 kts | 343° |
| 2026-04-21 06:30 | 37.38631 | 14.65934 | 36005 ft | 430 kts | 343° |
| 2026-04-21 06:30 | 37.44479 | 14.64318 | 36145 ft | 432 kts | 343° |
| 2026-04-21 06:30 | 37.47373 | 14.63516 | 36379 ft | 431 kts | 343° |
| 2026-04-21 06:31 | 37.50296 | 14.62708 | 36650 ft | 429 kts | 343° |
| 2026-04-21 06:31 | 37.53213 | 14.61899 | 36864 ft | 429 kts | 343° |
| 2026-04-21 06:31 | 37.56133 | 14.61089 | 37036 ft | 430 kts | 343° |
| 2026-04-21 06:31 | 37.59050 | 14.60279 | 37224 ft | 429 kts | 343° |
| 2026-04-21 06:32 | 37.61968 | 14.59469 | 37429 ft | 429 kts | 343° |
| 2026-04-21 06:32 | 37.64883 | 14.58658 | 37610 ft | 429 kts | 343° |
| 2026-04-21 06:32 | 37.67798 | 14.57847 | 37792 ft | 429 kts | 343° |
| 2026-04-21 06:32 | 37.70710 | 14.57035 | 37919 ft | 427 kts | 343° |
| 2026-04-21 06:33 | 37.73601 | 14.56231 | 38010 ft | 425 kts | 342° |
| 2026-04-21 06:33 | 37.79397 | 14.54612 | 38025 ft | 428 kts | 342° |
| 2026-04-21 06:34 | 37.85235 | 14.52978 | 38019 ft | 431 kts | 343° |
| 2026-04-21 06:34 | 37.91103 | 14.51335 | 38021 ft | 432 kts | 342° |
| 2026-04-21 06:35 | 37.95993 | 14.49963 | 38011 ft | 434 kts | 343° |
| 2026-04-21 06:35 | 38.01892 | 14.48308 | 38004 ft | 434 kts | 343° |
| 2026-04-21 06:36 | 38.07770 | 14.46656 | 38001 ft | 431 kts | 342° |
| 2026-04-21 06:36 | 38.13613 | 14.45011 | 37992 ft | 429 kts | 342° |
| 2026-04-21 06:37 | 38.19418 | 14.43373 | 37989 ft | 426 kts | 342° |
| 2026-04-21 06:37 | 38.25179 | 14.41745 | 37988 ft | 423 kts | 342° |
| 2026-04-21 06:38 | 38.30905 | 14.40124 | 37983 ft | 421 kts | 342° |
| 2026-04-21 06:38 | 38.36609 | 14.38506 | 37987 ft | 419 kts | 342° |
| 2026-04-21 06:39 | 38.42287 | 14.36892 | 37985 ft | 418 kts | 342° |
| 2026-04-21 06:39 | 38.47966 | 14.35275 | 37988 ft | 418 kts | 342° |
| 2026-04-21 06:40 | 38.53613 | 14.33665 | 37992 ft | 419 kts | 342° |
| 2026-04-21 06:40 | 38.59347 | 14.32028 | 37993 ft | 420 kts | 342° |
| 2026-04-21 06:41 | 38.65033 | 14.30402 | 37985 ft | 422 kts | 342° |
| 2026-04-21 06:41 | 38.70769 | 14.28759 | 37992 ft | 423 kts | 342° |
| 2026-04-21 06:42 | 38.76527 | 14.27108 | 37995 ft | 425 kts | 342° |
| 2026-04-21 06:42 | 38.82299 | 14.25449 | 37989 ft | 426 kts | 342° |
| 2026-04-21 06:43 | 38.88089 | 14.23784 | 37979 ft | 426 kts | 342° |
| 2026-04-21 06:43 | 38.93872 | 14.22117 | 37985 ft | 426 kts | 342° |
| 2026-04-21 06:44 | 38.99655 | 14.20448 | 37982 ft | 426 kts | 342° |
| 2026-04-21 06:44 | 39.05430 | 14.18778 | 37982 ft | 425 kts | 342° |
| 2026-04-21 06:45 | 39.11190 | 14.17109 | 37982 ft | 424 kts | 342° |
| 2026-04-21 06:45 | 39.16937 | 14.15442 | 37984 ft | 423 kts | 342° |
| 2026-04-21 06:46 | 39.22662 | 14.13778 | 37985 ft | 421 kts | 342° |
| 2026-04-21 06:46 | 39.28376 | 14.12114 | 37986 ft | 420 kts | 342° |
| 2026-04-21 06:47 | 39.34078 | 14.10451 | 37985 ft | 420 kts | 342° |
| 2026-04-21 06:47 | 39.39735 | 14.08798 | 37987 ft | 419 kts | 342° |
| 2026-04-21 06:48 | 39.45422 | 14.07133 | 37989 ft | 419 kts | 342° |
| 2026-04-21 06:48 | 39.51107 | 14.05466 | 37988 ft | 419 kts | 342° |
| 2026-04-21 06:49 | 39.56794 | 14.03796 | 37990 ft | 419 kts | 342° |
| 2026-04-21 06:49 | 39.62494 | 14.02120 | 37985 ft | 420 kts | 342° |
| 2026-04-21 06:50 | 39.68197 | 14.00439 | 37988 ft | 421 kts | 342° |
| 2026-04-21 06:50 | 39.73914 | 13.98752 | 37985 ft | 421 kts | 342° |
| 2026-04-21 06:51 | 39.79633 | 13.97061 | 37983 ft | 422 kts | 342° |
| 2026-04-21 06:51 | 39.85365 | 13.95364 | 37987 ft | 423 kts | 342° |
| 2026-04-21 06:52 | 39.91100 | 13.93663 | 37985 ft | 423 kts | 342° |
| 2026-04-21 06:52 | 39.96840 | 13.91957 | 37982 ft | 423 kts | 342° |
| 2026-04-21 06:53 | 40.02587 | 13.90247 | 37985 ft | 423 kts | 342° |
| 2026-04-21 06:53 | 40.08330 | 13.88535 | 37985 ft | 423 kts | 342° |
| 2026-04-21 06:54 | 40.14034 | 13.86831 | 37981 ft | 423 kts | 342° |
| 2026-04-21 06:54 | 40.19769 | 13.85115 | 37979 ft | 423 kts | 342° |
| 2026-04-21 06:55 | 40.25503 | 13.83397 | 37977 ft | 422 kts | 342° |
| 2026-04-21 06:55 | 40.31233 | 13.81677 | 37980 ft | 422 kts | 342° |
| 2026-04-21 06:56 | 40.36952 | 13.79957 | 37981 ft | 422 kts | 342° |
| 2026-04-21 06:56 | 40.42669 | 13.78234 | 37984 ft | 421 kts | 342° |
| 2026-04-21 06:57 | 40.48387 | 13.76508 | 37984 ft | 421 kts | 341° |
| 2026-04-21 06:57 | 40.54098 | 13.74781 | 37986 ft | 421 kts | 341° |
| 2026-04-21 06:58 | 40.59815 | 13.73049 | 37980 ft | 421 kts | 341° |
| 2026-04-21 06:58 | 40.65530 | 13.71316 | 37983 ft | 422 kts | 341° |
| 2026-04-21 06:59 | 40.71251 | 13.69577 | 37981 ft | 422 kts | 341° |
| 2026-04-21 06:59 | 40.76970 | 13.67836 | 37978 ft | 422 kts | 341° |
| 2026-04-21 07:00 | 40.82692 | 13.66090 | 37980 ft | 422 kts | 341° |
| 2026-04-21 07:00 | 40.88415 | 13.64341 | 37977 ft | 422 kts | 341° |
| 2026-04-21 07:01 | 40.94140 | 13.62589 | 37979 ft | 422 kts | 341° |
| 2026-04-21 07:01 | 41.02727 | 13.59955 | 37986 ft | 422 kts | 341° |
| 2026-04-21 07:02 | 41.08451 | 13.58195 | 37983 ft | 422 kts | 341° |
| 2026-04-21 07:02 | 41.14169 | 13.56434 | 37986 ft | 422 kts | 341° |
| 2026-04-21 07:03 | 41.19882 | 13.54671 | 37976 ft | 421 kts | 341° |
| 2026-04-21 07:03 | 41.25588 | 13.52907 | 37992 ft | 421 kts | 341° |
| 2026-04-21 07:04 | 41.31300 | 13.51138 | 37997 ft | 421 kts | 341° |
| 2026-04-21 07:04 | 41.36964 | 13.49381 | 37997 ft | 421 kts | 341° |
| 2026-04-21 07:05 | 41.42672 | 13.47606 | 37989 ft | 421 kts | 341° |
| 2026-04-21 07:05 | 41.48389 | 13.45826 | 37987 ft | 421 kts | 341° |
| 2026-04-21 07:06 | 41.54079 | 13.44052 | 37993 ft | 420 kts | 341° |
| 2026-04-21 07:06 | 41.59773 | 13.42273 | 37997 ft | 420 kts | 341° |
| 2026-04-21 07:07 | 41.65472 | 13.40489 | 37999 ft | 421 kts | 341° |
| 2026-04-21 07:07 | 41.71176 | 13.38699 | 37998 ft | 422 kts | 341° |
| 2026-04-21 07:08 | 41.76896 | 13.36901 | 37990 ft | 423 kts | 341° |
| 2026-04-21 07:08 | 41.82632 | 13.35096 | 37989 ft | 423 kts | 341° |
| 2026-04-21 07:09 | 41.88364 | 13.33289 | 38000 ft | 424 kts | 341° |
| 2026-04-21 07:09 | 41.94113 | 13.31472 | 37991 ft | 425 kts | 341° |
| 2026-04-21 07:10 | 41.99868 | 13.29651 | 37976 ft | 424 kts | 341° |
| 2026-04-21 07:10 | 42.05606 | 13.27835 | 37981 ft | 424 kts | 341° |
| 2026-04-21 07:11 | 42.11342 | 13.26012 | 37972 ft | 423 kts | 341° |
| 2026-04-21 07:11 | 42.17071 | 13.24188 | 37970 ft | 422 kts | 341° |
| 2026-04-21 07:12 | 42.22795 | 13.22362 | 37979 ft | 423 kts | 341° |
| 2026-04-21 07:12 | 42.28519 | 13.20533 | 37980 ft | 423 kts | 341° |
| 2026-04-21 07:13 | 42.34236 | 13.18703 | 37962 ft | 422 kts | 341° |
| 2026-04-21 07:13 | 42.39947 | 13.16873 | 37969 ft | 422 kts | 341° |
| 2026-04-21 07:14 | 42.45655 | 13.15038 | 37956 ft | 421 kts | 341° |
| 2026-04-21 07:14 | 42.51355 | 13.13203 | 37970 ft | 421 kts | 341° |
| 2026-04-21 07:15 | 42.57018 | 13.11377 | 37981 ft | 421 kts | 341° |
| 2026-04-21 07:15 | 42.62734 | 13.09529 | 37967 ft | 422 kts | 341° |
| 2026-04-21 07:16 | 42.68444 | 13.07681 | 37969 ft | 422 kts | 341° |
| 2026-04-21 07:16 | 42.74155 | 13.05829 | 37966 ft | 422 kts | 341° |
| 2026-04-21 07:17 | 42.79864 | 13.03974 | 37967 ft | 422 kts | 341° |
| 2026-04-21 07:17 | 42.85572 | 13.02116 | 37963 ft | 422 kts | 341° |
| 2026-04-21 07:18 | 42.91285 | 13.00252 | 37973 ft | 422 kts | 341° |
| 2026-04-21 07:18 | 42.97002 | 12.98384 | 37963 ft | 422 kts | 342° |
| 2026-04-21 07:19 | 43.02711 | 12.96515 | 37971 ft | 422 kts | 342° |
| 2026-04-21 07:19 | 43.08414 | 12.94645 | 37971 ft | 421 kts | 342° |
| 2026-04-21 07:20 | 43.14095 | 12.92777 | 37967 ft | 419 kts | 342° |
| 2026-04-21 07:20 | 43.19751 | 12.90916 | 37974 ft | 417 kts | 342° |
| 2026-04-21 07:21 | 43.25524 | 12.89825 | 37976 ft | 421 kts | 349° |
| 2026-04-21 07:21 | 43.31330 | 12.89048 | 37970 ft | 422 kts | 349° |
| 2026-04-21 07:22 | 43.37185 | 12.88253 | 37984 ft | 423 kts | 349° |
| 2026-04-21 07:22 | 43.43051 | 12.87431 | 37983 ft | 424 kts | 349° |
| 2026-04-21 07:23 | 43.47978 | 12.86731 | 37982 ft | 426 kts | 349° |
| 2026-04-21 07:23 | 43.54854 | 12.85748 | 37972 ft | 428 kts | 349° |
| 2026-04-21 07:24 | 43.59783 | 12.85043 | 37968 ft | 429 kts | 349° |
| 2026-04-21 07:24 | 43.65713 | 12.84195 | 37971 ft | 428 kts | 349° |
| 2026-04-21 07:25 | 43.71636 | 12.83346 | 37967 ft | 428 kts | 349° |
| 2026-04-21 07:25 | 43.77551 | 12.82496 | 37967 ft | 427 kts | 349° |
| 2026-04-21 07:26 | 43.83448 | 12.81646 | 37966 ft | 426 kts | 349° |
| 2026-04-21 07:26 | 43.89336 | 12.80795 | 37972 ft | 425 kts | 349° |
| 2026-04-21 07:27 | 43.95210 | 12.79945 | 37979 ft | 424 kts | 349° |
| 2026-04-21 07:27 | 44.01079 | 12.79095 | 37973 ft | 424 kts | 349° |
| 2026-04-21 07:28 | 44.06943 | 12.78243 | 37841 ft | 426 kts | 349° |
| 2026-04-21 07:28 | 44.09913 | 12.77808 | 37337 ft | 429 kts | 349° |
| 2026-04-21 07:28 | 44.12875 | 12.77377 | 36761 ft | 427 kts | 348° |
| 2026-04-21 07:29 | 44.15820 | 12.76950 | 36214 ft | 425 kts | 348° |
| 2026-04-21 07:29 | 44.18762 | 12.76521 | 35611 ft | 425 kts | 348° |
| 2026-04-21 07:29 | 44.21701 | 12.76092 | 34978 ft | 425 kts | 348° |
| 2026-04-21 07:29 | 44.24649 | 12.75660 | 34352 ft | 426 kts | 348° |
| 2026-04-21 07:30 | 44.27591 | 12.75229 | 33755 ft | 425 kts | 348° |
| 2026-04-21 07:30 | 44.30520 | 12.74802 | 33260 ft | 420 kts | 348° |
| 2026-04-21 07:30 | 44.33416 | 12.74379 | 32775 ft | 416 kts | 348° |
| 2026-04-21 07:30 | 44.36276 | 12.73961 | 32318 ft | 412 kts | 348° |
| 2026-04-21 07:31 | 44.39086 | 12.73548 | 31850 ft | 410 kts | 348° |
| 2026-04-21 07:31 | 44.41911 | 12.73131 | 31373 ft | 407 kts | 348° |
| 2026-04-21 07:31 | 44.44721 | 12.72716 | 30914 ft | 404 kts | 348° |
| 2026-04-21 07:31 | 44.47505 | 12.72306 | 30474 ft | 401 kts | 348° |
| 2026-04-21 07:32 | 44.50267 | 12.71899 | 30040 ft | 397 kts | 348° |
| 2026-04-21 07:32 | 44.52966 | 12.71277 | 29517 ft | 388 kts | 340° |
| 2026-04-21 07:32 | 44.55504 | 12.70144 | 29083 ft | 378 kts | 333° |
| 2026-04-21 07:32 | 44.57835 | 12.68543 | 28624 ft | 369 kts | 326° |
| 2026-04-21 07:33 | 44.60040 | 12.66748 | 28175 ft | 365 kts | 325° |
| 2026-04-21 07:33 | 44.62222 | 12.64951 | 27739 ft | 361 kts | 325° |
| 2026-04-21 07:33 | 44.64382 | 12.63175 | 27298 ft | 358 kts | 325° |
| 2026-04-21 07:33 | 44.66524 | 12.61422 | 26859 ft | 355 kts | 325° |
| 2026-04-21 07:34 | 44.68650 | 12.59688 | 26432 ft | 352 kts | 325° |
| 2026-04-21 07:34 | 44.70758 | 12.57971 | 26011 ft | 349 kts | 325° |
| 2026-04-21 07:34 | 44.72853 | 12.56265 | 25595 ft | 346 kts | 325° |
| 2026-04-21 07:34 | 44.74932 | 12.54573 | 25178 ft | 344 kts | 324° |
| 2026-04-21 07:35 | 44.76996 | 12.52891 | 24766 ft | 342 kts | 324° |
| 2026-04-21 07:35 | 44.79049 | 12.51218 | 24348 ft | 340 kts | 324° |
| 2026-04-21 07:35 | 44.81089 | 12.49551 | 23942 ft | 338 kts | 324° |
| 2026-04-21 07:35 | 44.83111 | 12.47893 | 23536 ft | 336 kts | 324° |
| 2026-04-21 07:36 | 44.85128 | 12.46236 | 23050 ft | 335 kts | 324° |
| 2026-04-21 07:36 | 44.87135 | 12.44586 | 22600 ft | 332 kts | 324° |
| 2026-04-21 07:36 | 44.89125 | 12.42949 | 22171 ft | 330 kts | 324° |
| 2026-04-21 07:36 | 44.91103 | 12.41321 | 21749 ft | 328 kts | 324° |
| 2026-04-21 07:37 | 44.93064 | 12.39705 | 21359 ft | 325 kts | 324° |
| 2026-04-21 07:37 | 44.95011 | 12.38099 | 20967 ft | 323 kts | 324° |
| 2026-04-21 07:37 | 44.96945 | 12.36503 | 20580 ft | 321 kts | 324° |
| 2026-04-21 07:37 | 44.98871 | 12.34913 | 20202 ft | 319 kts | 324° |
| 2026-04-21 07:38 | 45.00783 | 12.33333 | 19812 ft | 317 kts | 324° |
| 2026-04-21 07:38 | 45.02749 | 12.31902 | 19408 ft | 322 kts | 336° |
| 2026-04-21 07:38 | 45.04993 | 12.31435 | 19026 ft | 333 kts | 356° |
| 2026-04-21 07:38 | 45.07294 | 12.32106 | 18631 ft | 346 kts | 17° |
| 2026-04-21 07:39 | 45.09354 | 12.33942 | 18246 ft | 357 kts | 38° |
| 2026-04-21 07:39 | 45.10893 | 12.36744 | 17854 ft | 363 kts | 53° |
| 2026-04-21 07:39 | 45.12202 | 12.39804 | 17425 ft | 363 kts | 56° |
| 2026-04-21 07:39 | 45.13462 | 12.42899 | 17026 ft | 362 kts | 56° |
| 2026-04-21 07:40 | 45.14712 | 12.45985 | 16631 ft | 360 kts | 56° |
| 2026-04-21 07:40 | 45.15963 | 12.49049 | 16245 ft | 358 kts | 56° |
| 2026-04-21 07:40 | 45.17200 | 12.52047 | 15863 ft | 356 kts | 56° |
| 2026-04-21 07:40 | 45.18453 | 12.55065 | 15486 ft | 354 kts | 56° |
| 2026-04-21 07:41 | 45.19721 | 12.58106 | 15090 ft | 353 kts | 56° |
| 2026-04-21 07:41 | 45.20950 | 12.61049 | 14727 ft | 351 kts | 56° |
| 2026-04-21 07:41 | 45.22190 | 12.64021 | 14346 ft | 349 kts | 56° |
| 2026-04-21 07:41 | 45.23424 | 12.66978 | 13966 ft | 348 kts | 56° |
| 2026-04-21 07:42 | 45.24654 | 12.69929 | 13549 ft | 346 kts | 56° |
| 2026-04-21 07:42 | 45.25876 | 12.72863 | 13123 ft | 345 kts | 56° |
| 2026-04-21 07:42 | 45.27090 | 12.75784 | 12718 ft | 343 kts | 56° |
| 2026-04-21 07:42 | 45.28297 | 12.78689 | 12321 ft | 340 kts | 56° |
| 2026-04-21 07:43 | 45.29501 | 12.81579 | 11831 ft | 341 kts | 56° |
| 2026-04-21 07:43 | 45.30840 | 12.84319 | 11405 ft | 335 kts | 41° |
| 2026-04-21 07:43 | 45.32711 | 12.86175 | 11042 ft | 325 kts | 22° |
| 2026-04-21 07:43 | 45.34851 | 12.87041 | 10678 ft | 318 kts | 7° |
| 2026-04-21 07:44 | 45.37015 | 12.87534 | 10469 ft | 310 kts | 6° |
| 2026-04-21 07:44 | 45.39113 | 12.87970 | 10320 ft | 300 kts | 6° |
| 2026-04-21 07:44 | 45.41150 | 12.88392 | 10188 ft | 291 kts | 6° |
| 2026-04-21 07:44 | 45.43125 | 12.88809 | 10060 ft | 283 kts | 6° |
| 2026-04-21 07:45 | 45.45033 | 12.89220 | 9994 ft | 272 kts | 6° |
| 2026-04-21 07:45 | 45.46914 | 12.89629 | 9590 ft | 274 kts | 7° |
| 2026-04-21 07:45 | 45.48792 | 12.90042 | 9304 ft | 272 kts | 7° |
| 2026-04-21 07:45 | 45.50657 | 12.90454 | 8995 ft | 270 kts | 7° |
| 2026-04-21 07:46 | 45.52507 | 12.90865 | 8710 ft | 268 kts | 7° |
| 2026-04-21 07:46 | 45.54342 | 12.91273 | 8437 ft | 266 kts | 7° |
| 2026-04-21 07:46 | 45.56163 | 12.91679 | 8160 ft | 264 kts | 8° |
| 2026-04-21 07:46 | 45.57972 | 12.92084 | 7888 ft | 262 kts | 8° |
| 2026-04-21 07:47 | 45.59772 | 12.92486 | 7615 ft | 261 kts | 8° |
| 2026-04-21 07:47 | 45.61562 | 12.92887 | 7347 ft | 260 kts | 8° |
| 2026-04-21 07:47 | 45.63343 | 12.93286 | 7078 ft | 259 kts | 9° |
| 2026-04-21 07:47 | 45.65120 | 12.93685 | 6798 ft | 258 kts | 9° |
| 2026-04-21 07:48 | 45.66833 | 12.94290 | 6522 ft | 258 kts | 27° |
| 2026-04-21 07:48 | 45.68297 | 12.95744 | 6273 ft | 256 kts | 38° |
| 2026-04-21 07:48 | 45.69696 | 12.97325 | 5999 ft | 256 kts | 39° |
| 2026-04-21 07:48 | 45.71086 | 12.98906 | 5725 ft | 255 kts | 39° |
| 2026-04-21 07:49 | 45.72466 | 13.00470 | 5523 ft | 251 kts | 39° |
| 2026-04-21 07:49 | 45.73830 | 13.02014 | 5287 ft | 250 kts | 39° |
| 2026-04-21 07:49 | 45.75194 | 13.03552 | 5030 ft | 250 kts | 39° |
| 2026-04-21 07:49 | 45.76560 | 13.05094 | 4773 ft | 250 kts | 39° |
| 2026-04-21 07:50 | 45.77919 | 13.06627 | 4507 ft | 247 kts | 39° |
| 2026-04-21 07:50 | 45.79261 | 13.08135 | 4246 ft | 244 kts | 39° |
| 2026-04-21 07:50 | 45.80586 | 13.09632 | 3995 ft | 239 kts | 40° |
| 2026-04-21 07:50 | 45.81868 | 13.11094 | 3736 ft | 232 kts | 45° |
| 2026-04-21 07:51 | 45.82653 | 13.13002 | 3513 ft | 221 kts | 81° |
| 2026-04-21 07:51 | 45.82827 | 13.15115 | 3447 ft | 207 kts | 84° |
| 2026-04-21 07:51 | 45.82938 | 13.17104 | 3352 ft | 193 kts | 87° |
| 2026-04-21 07:51 | 45.82966 | 13.18982 | 3292 ft | 186 kts | 89° |
| 2026-04-21 07:52 | 45.82956 | 13.20825 | 3150 ft | 186 kts | 90° |
| 2026-04-21 07:52 | 45.82942 | 13.22667 | 2977 ft | 183 kts | 90° |
| 2026-04-21 07:52 | 45.82930 | 13.24479 | 2877 ft | 183 kts | 90° |
| 2026-04-21 07:52 | 45.82916 | 13.26333 | 2637 ft | 188 kts | 89° |
| 2026-04-21 07:53 | 45.82923 | 13.28195 | 2373 ft | 185 kts | 91° |
| 2026-04-21 07:53 | 45.82893 | 13.29959 | 2167 ft | 169 kts | 90° |
| 2026-04-21 07:53 | 45.82878 | 13.31602 | 1911 ft | 159 kts | 90° |
| 2026-04-21 07:53 | 45.82869 | 13.33196 | 1697 ft | 163 kts | 90° |
| 2026-04-21 07:54 | 45.82855 | 13.34825 | 1481 ft | 165 kts | 90° |
| 2026-04-21 07:54 | 45.82846 | 13.36439 | 1279 ft | 158 kts | 90° |
| 2026-04-21 07:54 | 45.82836 | 13.37997 | 1054 ft | 154 kts | 90° |
| 2026-04-21 07:54 | 45.82827 | 13.39490 | 870 ft | 142 kts | 89° |
| 2026-04-21 07:55 | 45.82819 | 13.40877 | 649 ft | 139 kts | 89° |
| 2026-04-21 07:55 | 45.82812 | 13.42242 | 459 ft | 135 kts | 90° |
| 2026-04-21 07:55 | 45.82803 | 13.43561 | 281 ft | 133 kts | 90° |
| 2026-04-21 07:55 | 45.82796 | 13.44891 | 110 ft | 134 kts | 90° |
| 2026-04-21 07:56 | 45.82789 | 13.46157 | 45 ft | 109 kts | 90° |
| 2026-04-21 07:56 | 45.82786 | 13.46927 | 44 ft | 46 kts | 90° |
| 2026-04-21 07:56 | 45.82785 | 13.47209 | 47 ft | 24 kts | 90° |
| 2026-04-21 07:56 | 45.82783 | 13.47442 | 43 ft | 21 kts | 90° |
| 2026-04-21 07:57 | 45.82762 | 13.47632 | 43 ft | 19 kts | 120° |
| 2026-04-21 07:57 | 45.82690 | 13.47747 | 45 ft | 15 kts | 137° |
| 2026-04-21 07:57 | 45.82609 | 13.47834 | 44 ft | 14 kts | 144° |
| 2026-04-21 07:57 | 45.82534 | 13.47920 | 44 ft | 14 kts | 140° |
| 2026-04-21 07:58 | 45.82463 | 13.48006 | 44 ft | 13 kts | 139° |
| 2026-04-21 07:58 | 45.82396 | 13.48090 | 44 ft | 13 kts | 140° |
| 2026-04-21 07:58 | 45.82326 | 13.48163 | 44 ft | 11 kts | 157° |
| 2026-04-21 07:58 | 45.82268 | 13.48184 | 43 ft | 5 kts | 170° |
| 2026-04-21 07:59 | 45.82233 | 13.48192 | 44 ft | 5 kts | 172° |
| 2026-04-21 07:59 | 45.82198 | 13.48199 | 42 ft | 5 kts | 172° |
| 2026-04-21 07:59 | 45.82172 | 13.48204 | 44 ft | 0 kts | 172° |